IBS1601 LEMD-GCLP
Flight info
| Callsign | IBS1601 |
|---|---|
| Flight time | N/A |
| Altitude | 37000 |
| Route | VTB N10 HIJ N857 KORNO UN857 TERTO |
| Aircraft | A320/M-SDE3FGHIRWY/LB1 |
Departure
| Time | 2026-05-07 13:58 |
|---|---|
| Airport | Adolfo Suárez Madrid–Barajas Airport (LEMD) |
Arrival
| Time | N/A |
|---|---|
| Airport | Gran Canaria Airport (GCLP) |
| Time | Latitude | Longitude | Altitude | Speed | Heading |
|---|---|---|---|---|---|
| 2026-05-07 13:28 | 40.49603 | -3.58969 | 2022 ft | 0 kts | 271° |
| 2026-05-07 13:47 | 40.49603 | -3.58957 | 2022 ft | 4 kts | 268° |
| 2026-05-07 13:47 | 40.49606 | -3.58922 | 2028 ft | 4 kts | 255° |
| 2026-05-07 13:47 | 40.49615 | -3.58889 | 2032 ft | 4 kts | 241° |
| 2026-05-07 13:48 | 40.49630 | -3.58860 | 2033 ft | 4 kts | 227° |
| 2026-05-07 13:48 | 40.49650 | -3.58836 | 2028 ft | 4 kts | 213° |
| 2026-05-07 13:48 | 40.49673 | -3.58820 | 2028 ft | 4 kts | 195° |
| 2026-05-07 13:48 | 40.49689 | -3.58817 | 2033 ft | 0 kts | 180° |
| 2026-05-07 13:52 | 40.49643 | -3.58816 | 2025 ft | 13 kts | 179° |
| 2026-05-07 13:52 | 40.49518 | -3.58814 | 2025 ft | 22 kts | 180° |
| 2026-05-07 13:52 | 40.49368 | -3.58813 | 2022 ft | 21 kts | 179° |
| 2026-05-07 13:53 | 40.49232 | -3.58813 | 2022 ft | 18 kts | 182° |
| 2026-05-07 13:53 | 40.49114 | -3.58814 | 2022 ft | 15 kts | 179° |
| 2026-05-07 13:53 | 40.49012 | -3.58812 | 2022 ft | 15 kts | 179° |
| 2026-05-07 13:53 | 40.48900 | -3.58810 | 2022 ft | 16 kts | 181° |
| 2026-05-07 13:54 | 40.48792 | -3.58809 | 2022 ft | 14 kts | 171° |
| 2026-05-07 13:54 | 40.48757 | -3.58717 | 2022 ft | 11 kts | 88° |
| 2026-05-07 13:54 | 40.48759 | -3.58621 | 2022 ft | 11 kts | 88° |
| 2026-05-07 13:54 | 40.48760 | -3.58499 | 2019 ft | 18 kts | 89° |
| 2026-05-07 13:55 | 40.48762 | -3.58319 | 2012 ft | 20 kts | 90° |
| 2026-05-07 13:55 | 40.48761 | -3.58134 | 2006 ft | 21 kts | 90° |
| 2026-05-07 13:55 | 40.48762 | -3.57943 | 1999 ft | 21 kts | 89° |
| 2026-05-07 13:55 | 40.48763 | -3.57754 | 1993 ft | 21 kts | 90° |
| 2026-05-07 13:56 | 40.48751 | -3.57591 | 1989 ft | 13 kts | 136° |
| 2026-05-07 13:56 | 40.48670 | -3.57569 | 1992 ft | 11 kts | 173° |
| 2026-05-07 13:56 | 40.48600 | -3.57557 | 1992 ft | 9 kts | 173° |
| 2026-05-07 13:56 | 40.48511 | -3.57545 | 1995 ft | 17 kts | 179° |
| 2026-05-07 13:57 | 40.48397 | -3.57504 | 1998 ft | 18 kts | 141° |
| 2026-05-07 13:57 | 40.48184 | -3.57286 | 2005 ft | 70 kts | 141° |
| 2026-05-07 13:57 | 40.47631 | -3.56732 | 1997 ft | 128 kts | 141° |
| 2026-05-07 13:57 | 40.46801 | -3.55882 | 2045 ft | 167 kts | 139° |
| 2026-05-07 13:58 | 40.45901 | -3.55032 | 2793 ft | 158 kts | 141° |
| 2026-05-07 13:58 | 40.45318 | -3.54459 | 3199 ft | 158 kts | 142° |
| 2026-05-07 13:58 | 40.44428 | -3.53580 | 3531 ft | 170 kts | 142° |
| 2026-05-07 13:58 | 40.43045 | -3.52200 | 3663 ft | 205 kts | 142° |
| 2026-05-07 13:59 | 40.41874 | -3.51004 | 3976 ft | 222 kts | 143° |
| 2026-05-07 13:59 | 40.40611 | -3.49713 | 4437 ft | 232 kts | 143° |
| 2026-05-07 13:59 | 40.39338 | -3.48421 | 5221 ft | 232 kts | 143° |
| 2026-05-07 13:59 | 40.38065 | -3.47127 | 5924 ft | 233 kts | 143° |
| 2026-05-07 14:00 | 40.37213 | -3.46257 | 6344 ft | 236 kts | 143° |
| 2026-05-07 14:00 | 40.35910 | -3.44926 | 6986 ft | 238 kts | 143° |
| 2026-05-07 14:00 | 40.34594 | -3.43583 | 7650 ft | 241 kts | 143° |
| 2026-05-07 14:00 | 40.33265 | -3.42232 | 8361 ft | 242 kts | 144° |
| 2026-05-07 14:01 | 40.31494 | -3.40430 | 9294 ft | 246 kts | 144° |
| 2026-05-07 14:01 | 40.30112 | -3.39097 | 9947 ft | 247 kts | 154° |
| 2026-05-07 14:01 | 40.28514 | -3.38336 | 10548 ft | 245 kts | 173° |
| 2026-05-07 14:01 | 40.27349 | -3.38256 | 10799 ft | 254 kts | 187° |
| 2026-05-07 14:02 | 40.25527 | -3.38942 | 11130 ft | 267 kts | 206° |
| 2026-05-07 14:02 | 40.23928 | -3.39917 | 11675 ft | 272 kts | 205° |
| 2026-05-07 14:02 | 40.22192 | -3.40951 | 12402 ft | 275 kts | 205° |
| 2026-05-07 14:02 | 40.20435 | -3.41964 | 13146 ft | 277 kts | 200° |
| 2026-05-07 14:03 | 40.18546 | -3.42576 | 13666 ft | 288 kts | 187° |
| 2026-05-07 14:03 | 40.16478 | -3.42793 | 13792 ft | 309 kts | 185° |
| 2026-05-07 14:03 | 40.14265 | -3.42995 | 13914 ft | 328 kts | 185° |
| 2026-05-07 14:03 | 40.11925 | -3.43205 | 14037 ft | 346 kts | 185° |
| 2026-05-07 14:04 | 40.09462 | -3.43429 | 14226 ft | 362 kts | 185° |
| 2026-05-07 14:04 | 40.06924 | -3.43664 | 14674 ft | 368 kts | 185° |
| 2026-05-07 14:04 | 40.04361 | -3.43907 | 15197 ft | 371 kts | 185° |
| 2026-05-07 14:04 | 40.01773 | -3.44153 | 15735 ft | 374 kts | 185° |
| 2026-05-07 14:05 | 39.99169 | -3.44400 | 16267 ft | 377 kts | 185° |
| 2026-05-07 14:05 | 39.96578 | -3.44644 | 16790 ft | 380 kts | 185° |
| 2026-05-07 14:05 | 39.93934 | -3.44894 | 17335 ft | 382 kts | 185° |
| 2026-05-07 14:05 | 39.91271 | -3.45150 | 17867 ft | 385 kts | 185° |
| 2026-05-07 14:06 | 39.88586 | -3.45411 | 18381 ft | 388 kts | 185° |
| 2026-05-07 14:06 | 39.85883 | -3.45672 | 18841 ft | 391 kts | 185° |
| 2026-05-07 14:06 | 39.83166 | -3.45932 | 19302 ft | 393 kts | 185° |
| 2026-05-07 14:06 | 39.80426 | -3.46192 | 19755 ft | 396 kts | 185° |
| 2026-05-07 14:07 | 39.77674 | -3.46475 | 20189 ft | 398 kts | 188° |
| 2026-05-07 14:07 | 39.75024 | -3.47488 | 20604 ft | 399 kts | 207° |
| 2026-05-07 14:07 | 39.72776 | -3.49601 | 20981 ft | 403 kts | 226° |
| 2026-05-07 14:07 | 39.71186 | -3.52600 | 21357 ft | 407 kts | 243° |
| 2026-05-07 14:08 | 39.69953 | -3.55924 | 21753 ft | 409 kts | 240° |
| 2026-05-07 14:08 | 39.68394 | -3.58958 | 22125 ft | 411 kts | 230° |
| 2026-05-07 14:08 | 39.66467 | -3.61710 | 22503 ft | 413 kts | 226° |
| 2026-05-07 14:08 | 39.64470 | -3.64408 | 22877 ft | 415 kts | 225° |
| 2026-05-07 14:09 | 39.62438 | -3.67078 | 23221 ft | 418 kts | 224° |
| 2026-05-07 14:09 | 39.60374 | -3.69749 | 23568 ft | 420 kts | 224° |
| 2026-05-07 14:09 | 39.58298 | -3.72425 | 23862 ft | 422 kts | 225° |
| 2026-05-07 14:09 | 39.56216 | -3.75123 | 24166 ft | 424 kts | 225° |
| 2026-05-07 14:10 | 39.54135 | -3.77836 | 24456 ft | 425 kts | 225° |
| 2026-05-07 14:10 | 39.52074 | -3.80526 | 24742 ft | 427 kts | 225° |
| 2026-05-07 14:10 | 39.49981 | -3.83263 | 25034 ft | 429 kts | 227° |
| 2026-05-07 14:10 | 39.47879 | -3.86014 | 25286 ft | 430 kts | 227° |
| 2026-05-07 14:11 | 39.45771 | -3.88771 | 25557 ft | 432 kts | 228° |
| 2026-05-07 14:11 | 39.43652 | -3.91537 | 25818 ft | 434 kts | 228° |
| 2026-05-07 14:11 | 39.41524 | -3.94308 | 26082 ft | 435 kts | 228° |
| 2026-05-07 14:11 | 39.39385 | -3.97086 | 26348 ft | 436 kts | 229° |
| 2026-05-07 14:12 | 39.37240 | -3.99868 | 26605 ft | 438 kts | 229° |
| 2026-05-07 14:12 | 39.35114 | -4.02622 | 26852 ft | 439 kts | 229° |
| 2026-05-07 14:12 | 39.32954 | -4.05419 | 27080 ft | 441 kts | 229° |
| 2026-05-07 14:12 | 39.30785 | -4.08225 | 27309 ft | 442 kts | 229° |
| 2026-05-07 14:13 | 39.28609 | -4.11039 | 27526 ft | 443 kts | 230° |
| 2026-05-07 14:13 | 39.26430 | -4.13856 | 27704 ft | 444 kts | 230° |
| 2026-05-07 14:13 | 39.24242 | -4.16679 | 27920 ft | 445 kts | 230° |
| 2026-05-07 14:13 | 39.22050 | -4.19505 | 28138 ft | 446 kts | 231° |
| 2026-05-07 14:14 | 39.19857 | -4.22330 | 28362 ft | 446 kts | 231° |
| 2026-05-07 14:14 | 39.17660 | -4.25158 | 28648 ft | 445 kts | 231° |
| 2026-05-07 14:14 | 39.15473 | -4.27966 | 28932 ft | 444 kts | 231° |
| 2026-05-07 14:14 | 39.13317 | -4.30730 | 29227 ft | 443 kts | 231° |
| 2026-05-07 14:15 | 39.11138 | -4.33524 | 29501 ft | 442 kts | 232° |
| 2026-05-07 14:15 | 39.08965 | -4.36309 | 29796 ft | 441 kts | 232° |
| 2026-05-07 14:15 | 39.06800 | -4.39090 | 30066 ft | 440 kts | 232° |
| 2026-05-07 14:15 | 39.04637 | -4.41864 | 30312 ft | 438 kts | 232° |
| 2026-05-07 14:16 | 39.02480 | -4.44624 | 30524 ft | 436 kts | 233° |
| 2026-05-07 14:16 | 39.00334 | -4.47366 | 30828 ft | 433 kts | 233° |
| 2026-05-07 14:16 | 38.98202 | -4.50090 | 31105 ft | 431 kts | 233° |
| 2026-05-07 14:16 | 38.96108 | -4.52761 | 31367 ft | 430 kts | 233° |
| 2026-05-07 14:17 | 38.93991 | -4.55460 | 31614 ft | 428 kts | 233° |
| 2026-05-07 14:17 | 38.91881 | -4.58150 | 31830 ft | 427 kts | 233° |
| 2026-05-07 14:17 | 38.89774 | -4.60833 | 32103 ft | 426 kts | 233° |
| 2026-05-07 14:17 | 38.87676 | -4.63499 | 32377 ft | 424 kts | 233° |
| 2026-05-07 14:18 | 38.85581 | -4.66159 | 32641 ft | 423 kts | 233° |
| 2026-05-07 14:18 | 38.83497 | -4.68802 | 32901 ft | 421 kts | 233° |
| 2026-05-07 14:18 | 38.81413 | -4.71439 | 33159 ft | 420 kts | 233° |
| 2026-05-07 14:18 | 38.79339 | -4.74060 | 33370 ft | 418 kts | 234° |
| 2026-05-07 14:19 | 38.77273 | -4.76674 | 33621 ft | 416 kts | 234° |
| 2026-05-07 14:19 | 38.75216 | -4.79278 | 33869 ft | 415 kts | 234° |
| 2026-05-07 14:19 | 38.73191 | -4.81839 | 34079 ft | 414 kts | 234° |
| 2026-05-07 14:19 | 38.71150 | -4.84416 | 34259 ft | 413 kts | 233° |
| 2026-05-07 14:20 | 38.69107 | -4.86996 | 34438 ft | 413 kts | 233° |
| 2026-05-07 14:20 | 38.67061 | -4.89572 | 34604 ft | 412 kts | 233° |
| 2026-05-07 14:20 | 38.65017 | -4.92143 | 34744 ft | 412 kts | 233° |
| 2026-05-07 14:20 | 38.62970 | -4.94716 | 34884 ft | 413 kts | 233° |
| 2026-05-07 14:21 | 38.60923 | -4.97288 | 35056 ft | 411 kts | 233° |
| 2026-05-07 14:21 | 38.58886 | -4.99846 | 35259 ft | 410 kts | 232° |
| 2026-05-07 14:21 | 38.56852 | -5.02394 | 35426 ft | 409 kts | 232° |
| 2026-05-07 14:21 | 38.54822 | -5.04935 | 35572 ft | 409 kts | 232° |
| 2026-05-07 14:22 | 38.52796 | -5.07474 | 35723 ft | 407 kts | 231° |
| 2026-05-07 14:22 | 38.50630 | -5.09779 | 35885 ft | 415 kts | 223° |
| 2026-05-07 14:22 | 38.48112 | -5.11664 | 36022 ft | 425 kts | 214° |
| 2026-05-07 14:22 | 38.45457 | -5.13306 | 36139 ft | 424 kts | 214° |
| 2026-05-07 14:23 | 38.42801 | -5.14952 | 36280 ft | 424 kts | 214° |
| 2026-05-07 14:23 | 38.40154 | -5.16596 | 36402 ft | 423 kts | 214° |
| 2026-05-07 14:23 | 38.37503 | -5.18241 | 36536 ft | 423 kts | 214° |
| 2026-05-07 14:23 | 38.34864 | -5.19876 | 36670 ft | 422 kts | 214° |
| 2026-05-07 14:24 | 38.32225 | -5.21510 | 36830 ft | 421 kts | 214° |
| 2026-05-07 14:24 | 38.26954 | -5.24779 | 36884 ft | 421 kts | 214° |
| 2026-05-07 14:25 | 38.21727 | -5.28012 | 36880 ft | 421 kts | 214° |
| 2026-05-07 14:25 | 38.16462 | -5.31261 | 36883 ft | 421 kts | 214° |
| 2026-05-07 14:26 | 38.11195 | -5.34517 | 36886 ft | 421 kts | 214° |
| 2026-05-07 14:26 | 38.05913 | -5.37769 | 36859 ft | 421 kts | 214° |
| 2026-05-07 14:27 | 38.00675 | -5.40977 | 36889 ft | 421 kts | 214° |
| 2026-05-07 14:27 | 37.95403 | -5.44207 | 36892 ft | 421 kts | 214° |
| 2026-05-07 14:28 | 37.90128 | -5.47446 | 36890 ft | 421 kts | 214° |
| 2026-05-07 14:28 | 37.84849 | -5.50678 | 36891 ft | 421 kts | 214° |
| 2026-05-07 14:29 | 37.79574 | -5.53899 | 36889 ft | 421 kts | 214° |
| 2026-05-07 14:29 | 37.74327 | -5.57092 | 36891 ft | 421 kts | 214° |
| 2026-05-07 14:30 | 37.69049 | -5.60301 | 36892 ft | 421 kts | 214° |
| 2026-05-07 14:30 | 37.63771 | -5.63510 | 36897 ft | 421 kts | 214° |
| 2026-05-07 14:31 | 37.58489 | -5.66714 | 36898 ft | 421 kts | 214° |
| 2026-05-07 14:31 | 37.53207 | -5.69910 | 36892 ft | 421 kts | 214° |
| 2026-05-07 14:32 | 37.47980 | -5.73068 | 36893 ft | 420 kts | 214° |
| 2026-05-07 14:32 | 37.42808 | -5.76389 | 36889 ft | 411 kts | 221° |
| 2026-05-07 14:33 | 37.38421 | -5.80844 | 36892 ft | 404 kts | 227° |
| 2026-05-07 14:33 | 37.34129 | -5.85422 | 36892 ft | 405 kts | 227° |
| 2026-05-07 14:34 | 37.29863 | -5.89958 | 36919 ft | 404 kts | 227° |
| 2026-05-07 14:34 | 37.25571 | -5.94518 | 36917 ft | 404 kts | 227° |
| 2026-05-07 14:35 | 37.21269 | -5.99066 | 36913 ft | 404 kts | 227° |
| 2026-05-07 14:35 | 37.16969 | -6.03613 | 36919 ft | 404 kts | 227° |
| 2026-05-07 14:36 | 37.12674 | -6.08163 | 36921 ft | 404 kts | 227° |
| 2026-05-07 14:36 | 37.08407 | -6.12663 | 36923 ft | 403 kts | 227° |
| 2026-05-07 14:37 | 37.04128 | -6.17166 | 36928 ft | 402 kts | 227° |
| 2026-05-07 14:37 | 36.97713 | -6.23918 | 36926 ft | 402 kts | 227° |
| 2026-05-07 14:38 | 36.93432 | -6.28406 | 36930 ft | 401 kts | 227° |
| 2026-05-07 14:38 | 36.89183 | -6.32856 | 36940 ft | 401 kts | 227° |
| 2026-05-07 14:39 | 36.84904 | -6.37335 | 36943 ft | 401 kts | 227° |
| 2026-05-07 14:39 | 36.80625 | -6.41814 | 36933 ft | 401 kts | 227° |
| 2026-05-07 14:40 | 36.76343 | -6.46281 | 36945 ft | 401 kts | 227° |
| 2026-05-07 14:40 | 36.72065 | -6.50734 | 36946 ft | 400 kts | 226° |
| 2026-05-07 14:41 | 36.67822 | -6.55147 | 36946 ft | 400 kts | 226° |
| 2026-05-07 14:41 | 36.63551 | -6.59583 | 36939 ft | 400 kts | 226° |
| 2026-05-07 14:42 | 36.59270 | -6.64019 | 36939 ft | 400 kts | 226° |
| 2026-05-07 14:42 | 36.54991 | -6.68449 | 36930 ft | 400 kts | 226° |